| time (UTC) | temp F | wind direction | speed knots | gust knots | rain 1hr in | rain 24hr in | rain mn in | humidity % | barometer mb |
| 20260507064523 | 58 | 149 | 0.0 | 0.0 | 0.00 | 0.00 | 0.00 | 87 | 1016.1 |
| 20260507063020 | 58 | 148 | 0.0 | 0.9 | 0.00 | 0.00 | 0.00 | 86 | 1016.0 |
| 20260507061520 | 58 | 148 | 0.0 | 0.9 | 0.00 | 0.00 | 0.00 | 86 | 1016.0 |
| 20260507060035 | 58 | 170 | 0.0 | 0.0 | 0.00 | 0.00 | 0.00 | 84 | 1016.1 |
| 20260507054519 | 58 | 169 | 0.0 | 0.0 | 0.00 | 0.00 | 0.00 | 84 | 1016.0 |
| 20260507053018 | 59 | 169 | 0.0 | 0.0 | 0.00 | 0.00 | 0.00 | 83 | 1015.9 |
| 20260507051519 | 59 | 169 | 0.0 | 0.0 | 0.00 | 0.00 | 0.00 | 82 | 1016.0 |
| 20260507050018 | 60 | 169 | 0.0 | 0.0 | 0.00 | 0.00 | 0.00 | 82 | 1015.8 |
| 20260507044538 | 60 | 169 | 0.0 | 0.0 | 0.00 | 0.00 | 0.00 | 81 | 1015.8 |
| 20260507043017 | 61 | 173 | 0.0 | 0.0 | 0.00 | 0.00 | 0.00 | 80 | 1015.7 |
| 20260507041516 | 61 | 179 | 0.0 | 0.0 | 0.00 | 0.00 | 0.00 | 79 | 1015.5 |
| 20260507040016 | 62 | 184 | 0.0 | 0.0 | 0.00 | 0.00 | 0.00 | 78 | 1015.3 |
| 20260507034516 | 62 | 190 | 0.0 | 0.0 | 0.00 | 0.00 | 0.00 | 77 | 1015.1 |
| 20260507033015 | 63 | 194 | 0.0 | 0.0 | 0.00 | 0.00 | 0.00 | 76 | 1015.1 |
| 20260507031515 | 63 | 204 | 0.0 | 0.0 | 0.00 | 0.00 | 0.00 | 75 | 1014.9 |
| 20260507030014 | 64 | 202 | 0.0 | 0.0 | 0.00 | 0.00 | 0.00 | 74 | 1014.7 |
| 20260507024514 | 65 | 217 | 0.0 | 2.6 | 0.00 | 0.00 | 0.00 | 72 | 1014.8 |
| 20260507023013 | 66 | 205 | 0.0 | 2.6 | 0.00 | 0.00 | 0.00 | 69 | 1014.7 |
| 20260507021518 | 67 | 217 | 0.0 | 2.6 | 0.00 | 0.00 | 0.00 | 67 | 1014.7 |
| 20260507020013 | 68 | 189 | 0.0 | 0.9 | 0.00 | 0.00 | 0.00 | 65 | 1014.8 |
| 20260507014510 | 69 | 200 | 0.0 | 3.5 | 0.00 | 0.00 | 0.00 | 63 | 1014.9 |
| 20260507013009 | 70 | 211 | 0.0 | 3.5 | 0.00 | 0.00 | 0.00 | 57 | 1014.9 |
| 20260507011509 | 72 | 189 | 0.9 | 3.5 | 0.00 | 0.00 | 0.00 | 56 | 1015.0 |
| 20260507010008 | 72 | 162 | 0.9 | 2.6 | 0.00 | 0.00 | 0.00 | 55 | 1014.9 |
| 20260507004507 | 72 | 206 | 1.7 | 4.3 | 0.00 | 0.00 | 0.00 | 54 | 1015.1 |
| 20260507003005 | 72 | 200 | 0.9 | 3.5 | 0.00 | 0.00 | 0.00 | 55 | 1015.2 |
| 20260507001510 | 72 | 172 | 1.7 | 4.3 | 0.00 | 0.00 | 0.00 | 56 | 1015.2 |
| 20260507000011 | 73 | 187 | 1.7 | 5.2 | 0.00 | 0.00 | 0.00 | 56 | 1015.1 |
| 20260506234507 | 74 | 225 | 0.9 | 3.5 | 0.00 | 0.00 | 0.00 | 54 | 1015.3 |
| 20260506233001 | 73 | 219 | 0.9 | 4.3 | 0.00 | 0.00 | 0.00 | 55 | 1015.3 |
| 20260506231559 | 73 | 166 | 1.7 | 6.1 | 0.00 | 0.00 | 0.00 | 53 | 1015.5 |
| 20260506230056 | 73 | 214 | 0.9 | 4.3 | 0.00 | 0.00 | 0.00 | 53 | 1015.7 |
| 20260506224603 | 73 | 193 | 1.7 | 6.1 | 0.00 | 0.00 | 0.00 | 53 | 1016.0 |
| 20260506223051 | 72 | 304 | 0.9 | 5.2 | 0.00 | 0.00 | 0.00 | 54 | 1016.3 |
| 20260506221553 | 73 | 129 | 1.7 | 5.2 | 0.00 | 0.00 | 0.00 | 54 | 1016.5 |
| 20260506220048 | 72 | 268 | 0.9 | 3.5 | 0.00 | 0.00 | 0.00 | 55 | 1016.8 |
| 20260506214606 | 72 | 156 | 1.7 | 5.2 | 0.00 | 0.00 | 0.00 | 55 | 1017.0 |
| 20260506213046 | 72 | 185 | 0.9 | 7.0 | 0.00 | 0.00 | 0.00 | 57 | 1017.1 |
| 20260506211544 | 72 | 124 | 1.7 | 7.8 | 0.00 | 0.00 | 0.00 | 58 | 1017.3 |
| 20260506210042 | 71 | 201 | 0.9 | 4.3 | 0.00 | 0.00 | 0.00 | 59 | 1017.3 |
| 20260506204539 | 70 | 192 | 1.7 | 6.1 | 0.00 | 0.00 | 0.00 | 62 | 1017.3 |
| 20260506203036 | 70 | 194 | 2.6 | 4.3 | 0.00 | 0.00 | 0.00 | 61 | 1017.4 |
| 20260506201535 | 69 | 162 | 1.7 | 5.2 | 0.00 | 0.00 | 0.00 | 63 | 1017.6 |
| 20260506200035 | 68 | 153 | 1.7 | 5.2 | 0.00 | 0.00 | 0.00 | 63 | 1017.7 |
| 20260506194533 | 69 | 213 | 0.9 | 6.1 | 0.00 | 0.00 | 0.00 | 60 | 1017.7 |
| 20260506193034 | 70 | 224 | 1.7 | 4.3 | 0.00 | 0.00 | 0.00 | 59 | 1017.8 |
| 20260506191535 | 70 | 171 | 0.9 | 3.5 | 0.00 | 0.00 | 0.00 | 61 | 1017.8 |
| 20260506190030 | 69 | 172 | 1.7 | 5.2 | 0.00 | 0.00 | 0.00 | 61 | 1017.9 |
| 20260506184531 | 69 | 288 | 0.9 | 5.2 | 0.00 | 0.00 | 0.00 | 62 | 1018.0 |
| 20260506183025 | 69 | 251 | 0.9 | 6.1 | 0.00 | 0.00 | 0.00 | 63 | 1018.1 |
| 20260506181525 | 68 | 194 | 2.6 | 5.2 | 0.00 | 0.00 | 0.00 | 64 | 1018.3 |
| 20260506180026 | 68 | 213 | 1.7 | 5.2 | 0.00 | 0.00 | 0.00 | 65 | 1018.3 |
| 20260506174520 | 67 | 166 | 1.7 | 5.2 | 0.00 | 0.00 | 0.00 | 66 | 1018.3 |
| 20260506173018 | 67 | 177 | 0.9 | 4.3 | 0.00 | 0.00 | 0.00 | 68 | 1018.2 |
| 20260506171518 | 66 | 227 | 0.9 | 6.1 | 0.00 | 0.00 | 0.00 | 68 | 1018.3 |
| 20260506170016 | 66 | 126 | 0.9 | 4.3 | 0.00 | 0.00 | 0.00 | 68 | 1018.2 |
| 20260506164517 | 65 | 113 | 0.0 | 2.6 | 0.00 | 0.00 | 0.00 | 70 | 1018.1 |
| 20260506163009 | 63 | 38 | 0.9 | 3.5 | 0.00 | 0.00 | 0.00 | 73 | 1018.1 |
| 20260506161503 | 62 | 155 | 0.9 | 3.5 | 0.00 | 0.00 | 0.00 | 78 | 1018.1 |
| 20260506160059 | 60 | 175 | 0.0 | 2.6 | 0.00 | 0.00 | 0.00 | 83 | 1018.0 |
| 20260506154612 | 59 | 184 | 0.0 | 1.7 | 0.00 | 0.00 | 0.00 | 88 | 1018.0 |
| 20260506153053 | 57 | 186 | 0.0 | 1.7 | 0.00 | 0.00 | 0.00 | 91 | 1018.0 |
| 20260506151551 | 54 | 234 | 0.0 | 0.0 | 0.00 | 0.00 | 0.00 | 93 | 1017.9 |
| 20260506150052 | 53 | 77 | 0.0 | 0.0 | 0.00 | 0.00 | 0.00 | 92 | 1018.1 |
| 20260506144559 | 52 | 77 | 0.0 | 0.0 | 0.00 | 0.00 | 0.00 | 92 | 1017.9 |
| 20260506143048 | 51 | 77 | 0.0 | 0.0 | 0.00 | 0.00 | 0.00 | 92 | 1017.8 |
| 20260506141547 | 50 | 77 | 0.0 | 0.0 | 0.00 | 0.00 | 0.00 | 91 | 1017.8 |
| 20260506140057 | 50 | 77 | 0.0 | 0.0 | 0.00 | 0.00 | 0.00 | 91 | 1017.7 |
| 20260506134543 | 49 | 77 | 0.0 | 0.0 | 0.00 | 0.00 | 0.00 | 91 | 1017.5 |
| 20260506133047 | 49 | 77 | 0.0 | 0.0 | 0.00 | 0.00 | 0.00 | 90 | 1017.4 |
| 20260506131541 | 49 | 78 | 0.0 | 0.0 | 0.00 | 0.00 | 0.00 | 90 | 1017.2 |
| 20260506130042 | 49 | 78 | 0.0 | 0.0 | 0.00 | 0.00 | 0.00 | 90 | 1017.2 |
| 20260506124538 | 49 | 78 | 0.0 | 0.0 | 0.00 | 0.00 | 0.00 | 89 | 1017.1 |
| 20260506123036 | 49 | 78 | 0.0 | 0.0 | 0.00 | 0.00 | 0.00 | 89 | 1017.1 |
| 20260506121535 | 50 | 78 | 0.0 | 0.0 | 0.00 | 0.00 | 0.00 | 89 | 1017.0 |
| 20260506120038 | 50 | 78 | 0.0 | 0.0 | 0.00 | 0.00 | 0.00 | 88 | 1017.1 |
| 20260506114532 | 50 | 78 | 0.0 | 0.0 | 0.00 | 0.00 | 0.00 | 88 | 1017.0 |
| 20260506113030 | 50 | 78 | 0.0 | 0.0 | 0.00 | 0.00 | 0.00 | 87 | 1017.1 |
| 20260506111528 | 51 | 78 | 0.0 | 0.0 | 0.00 | 0.00 | 0.00 | 87 | 1017.0 |
| 20260506110026 | 51 | 78 | 0.0 | 0.0 | 0.00 | 0.00 | 0.00 | 86 | 1016.8 |
| 20260506104524 | 51 | 108 | 0.0 | 0.0 | 0.00 | 0.00 | 0.00 | 86 | 1016.7 |
| 20260506103027 | 52 | 108 | 0.0 | 0.0 | 0.00 | 0.00 | 0.00 | 85 | 1016.7 |
| 20260506101528 | 52 | 108 | 0.0 | 0.0 | 0.00 | 0.00 | 0.00 | 85 | 1016.6 |
| 20260506100029 | 53 | 108 | 0.0 | 0.0 | 0.00 | 0.00 | 0.00 | 84 | 1016.5 |
| 20260506094519 | 54 | 108 | 0.0 | 0.0 | 0.00 | 0.00 | 0.00 | 84 | 1016.6 |
| 20260506093017 | 54 | 108 | 0.0 | 0.0 | 0.00 | 0.00 | 0.00 | 83 | 1016.5 |
| 20260506091512 | 55 | 108 | 0.0 | 0.0 | 0.00 | 0.00 | 0.00 | 82 | 1016.6 |
| 20260506090010 | 55 | 108 | 0.0 | 0.0 | 0.00 | 0.00 | 0.00 | 81 | 1016.6 |
| 20260506084510 | 56 | 108 | 0.0 | 0.0 | 0.00 | 0.00 | 0.00 | 81 | 1016.8 |
| 20260506083009 | 56 | 109 | 0.0 | 0.0 | 0.00 | 0.00 | 0.00 | 80 | 1016.9 |
| 20260506081504 | 56 | 109 | 0.0 | 0.0 | 0.00 | 0.00 | 0.00 | 79 | 1016.9 |
| 20260506073058 | 58 | 119 | 0.0 | 0.9 | 0.00 | 0.00 | 0.00 | 77 | 1016.6 |
| 20260506071558 | 58 | 37 | 0.0 | 0.9 | 0.00 | 0.00 | 0.00 | 76 | 1016.6 |